PUA9534 SBPS-SUMU
Flight info
| Callsign | PUA9534 |
|---|---|
| Flight time | N/A |
| Altitude | 36000 |
| Route | MUDSA UM661 TOSIB |
| Aircraft | A320/M-SDE3FGHIRWY/LB1 |
Departure
| Time | 2026-04-30 02:57 |
|---|---|
| Airport | Porto Seguro International Airport (SBPS) |
Arrival
| Time | N/A |
|---|---|
| Airport | Carrasco General Cesáreo L. Berisso International Airport (SUMU) |
| Time | Latitude | Longitude | Altitude | Speed | Heading |
|---|---|---|---|---|---|
| 2026-04-30 02:23 | -16.44057 | -39.08059 | 160 ft | 0 kts | 164° |
| 2026-04-30 02:50 | -16.44046 | -39.08062 | 160 ft | 4 kts | 168° |
| 2026-04-30 02:50 | -16.44020 | -39.08064 | 160 ft | 4 kts | 197° |
| 2026-04-30 02:50 | -16.44001 | -39.08051 | 160 ft | 2 kts | 253° |
| 2026-04-30 02:50 | -16.44000 | -39.08049 | 160 ft | 0 kts | 255° |
| 2026-04-30 02:54 | -16.44003 | -39.08057 | 160 ft | 3 kts | 255° |
| 2026-04-30 02:54 | -16.44001 | -39.08107 | 160 ft | 7 kts | 314° |
| 2026-04-30 02:54 | -16.43939 | -39.08130 | 160 ft | 12 kts | 343° |
| 2026-04-30 02:54 | -16.43884 | -39.08155 | 159 ft | 13 kts | 308° |
| 2026-04-30 02:55 | -16.43895 | -39.08256 | 159 ft | 17 kts | 255° |
| 2026-04-30 02:55 | -16.43946 | -39.08438 | 158 ft | 23 kts | 255° |
| 2026-04-30 02:55 | -16.43975 | -39.08550 | 159 ft | 25 kts | 253° |
| 2026-04-30 02:55 | -16.44026 | -39.08735 | 160 ft | 28 kts | 255° |
| 2026-04-30 02:56 | -16.44073 | -39.08913 | 160 ft | 13 kts | 254° |
| 2026-04-30 02:56 | -16.44080 | -39.08990 | 160 ft | 7 kts | 191° |
| 2026-04-30 02:56 | -16.44086 | -39.08964 | 160 ft | 5 kts | 84° |
| 2026-04-30 02:56 | -16.44083 | -39.08948 | 160 ft | 0 kts | 75° |
| 2026-04-30 02:57 | -16.44052 | -39.08824 | 160 ft | 55 kts | 75° |
| 2026-04-30 02:57 | -16.43884 | -39.08192 | 160 ft | 122 kts | 74° |
| 2026-04-30 02:57 | -16.43626 | -39.07209 | 409 ft | 149 kts | 76° |
| 2026-04-30 02:57 | -16.43354 | -39.06191 | 1099 ft | 145 kts | 76° |
| 2026-04-30 02:58 | -16.43072 | -39.05152 | 1639 ft | 152 kts | 75° |
| 2026-04-30 02:58 | -16.42917 | -39.04010 | 1797 ft | 171 kts | 102° |
| 2026-04-30 02:58 | -16.43541 | -39.02919 | 1932 ft | 191 kts | 140° |
| 2026-04-30 02:58 | -16.44837 | -39.02393 | 2088 ft | 217 kts | 170° |
| 2026-04-30 02:59 | -16.46419 | -39.02169 | 2427 ft | 242 kts | 171° |
| 2026-04-30 02:59 | -16.48162 | -39.01940 | 2978 ft | 259 kts | 171° |
| 2026-04-30 02:59 | -16.49972 | -39.01708 | 3812 ft | 264 kts | 171° |
| 2026-04-30 02:59 | -16.51811 | -39.01463 | 4669 ft | 269 kts | 170° |
| 2026-04-30 03:00 | -16.53678 | -39.01210 | 5516 ft | 272 kts | 170° |
| 2026-04-30 03:00 | -16.55569 | -39.00950 | 6353 ft | 277 kts | 170° |
| 2026-04-30 03:00 | -16.57492 | -39.00683 | 7141 ft | 280 kts | 169° |
| 2026-04-30 03:00 | -16.59436 | -39.00412 | 7916 ft | 284 kts | 169° |
| 2026-04-30 03:01 | -16.61407 | -39.00136 | 8705 ft | 287 kts | 169° |
| 2026-04-30 03:01 | -16.63406 | -38.99860 | 9456 ft | 291 kts | 169° |
| 2026-04-30 03:01 | -16.65428 | -38.99581 | 10163 ft | 296 kts | 169° |
| 2026-04-30 03:01 | -16.67533 | -38.99285 | 10428 ft | 316 kts | 169° |
| 2026-04-30 03:02 | -16.69795 | -38.98961 | 10570 ft | 340 kts | 169° |
| 2026-04-30 03:02 | -16.72199 | -38.98619 | 10847 ft | 355 kts | 169° |
| 2026-04-30 03:02 | -16.74671 | -38.98276 | 11400 ft | 360 kts | 170° |
| 2026-04-30 03:02 | -16.77169 | -38.97930 | 11999 ft | 364 kts | 169° |
| 2026-04-30 03:03 | -16.79685 | -38.97578 | 12602 ft | 367 kts | 169° |
| 2026-04-30 03:03 | -16.84787 | -38.96866 | 13809 ft | 372 kts | 169° |
| 2026-04-30 03:03 | -16.87366 | -38.96507 | 14322 ft | 376 kts | 170° |
| 2026-04-30 03:04 | -16.89970 | -38.96148 | 14796 ft | 379 kts | 170° |
| 2026-04-30 03:04 | -16.92600 | -38.95783 | 15266 ft | 383 kts | 170° |
| 2026-04-30 03:04 | -16.95256 | -38.95415 | 15728 ft | 387 kts | 170° |
| 2026-04-30 03:04 | -16.97937 | -38.95040 | 16187 ft | 391 kts | 170° |
| 2026-04-30 03:05 | -17.00641 | -38.94658 | 16631 ft | 394 kts | 170° |
| 2026-04-30 03:05 | -17.03373 | -38.94273 | 17078 ft | 398 kts | 170° |
| 2026-04-30 03:05 | -17.06131 | -38.93885 | 17519 ft | 402 kts | 171° |
| 2026-04-30 03:05 | -17.08914 | -38.93494 | 17943 ft | 405 kts | 171° |
| 2026-04-30 03:06 | -17.11718 | -38.93100 | 18358 ft | 409 kts | 171° |
| 2026-04-30 03:06 | -17.14557 | -38.92703 | 18724 ft | 412 kts | 171° |
| 2026-04-30 03:06 | -17.17405 | -38.92304 | 19103 ft | 415 kts | 171° |
| 2026-04-30 03:06 | -17.20275 | -38.91900 | 19485 ft | 417 kts | 171° |
| 2026-04-30 03:07 | -17.23166 | -38.91494 | 19870 ft | 420 kts | 171° |
| 2026-04-30 03:07 | -17.26067 | -38.91091 | 20251 ft | 422 kts | 171° |
| 2026-04-30 03:07 | -17.28950 | -38.90690 | 20635 ft | 425 kts | 171° |
| 2026-04-30 03:07 | -17.31889 | -38.90277 | 21013 ft | 427 kts | 171° |
| 2026-04-30 03:08 | -17.34843 | -38.89860 | 21406 ft | 430 kts | 171° |
| 2026-04-30 03:08 | -17.37814 | -38.89439 | 21780 ft | 432 kts | 171° |
| 2026-04-30 03:08 | -17.40805 | -38.89015 | 22165 ft | 434 kts | 171° |
| 2026-04-30 03:08 | -17.43805 | -38.88586 | 22536 ft | 437 kts | 171° |
| 2026-04-30 03:09 | -17.46825 | -38.88159 | 22917 ft | 439 kts | 171° |
| 2026-04-30 03:09 | -17.49863 | -38.87733 | 23289 ft | 442 kts | 171° |
| 2026-04-30 03:09 | -17.52919 | -38.87307 | 23650 ft | 444 kts | 171° |
| 2026-04-30 03:09 | -17.55987 | -38.86879 | 23956 ft | 446 kts | 171° |
| 2026-04-30 03:10 | -17.59074 | -38.86447 | 24273 ft | 448 kts | 171° |
| 2026-04-30 03:10 | -17.62165 | -38.86011 | 24588 ft | 450 kts | 171° |
| 2026-04-30 03:10 | -17.65271 | -38.85572 | 24902 ft | 451 kts | 171° |
| 2026-04-30 03:10 | -17.68386 | -38.85130 | 25211 ft | 452 kts | 171° |
| 2026-04-30 03:11 | -17.71511 | -38.84683 | 25518 ft | 454 kts | 171° |
| 2026-04-30 03:11 | -17.74648 | -38.84236 | 25824 ft | 456 kts | 171° |
| 2026-04-30 03:11 | -17.77795 | -38.83789 | 26140 ft | 457 kts | 171° |
| 2026-04-30 03:11 | -17.80956 | -38.83344 | 26455 ft | 458 kts | 171° |
| 2026-04-30 03:12 | -17.84121 | -38.82899 | 26780 ft | 460 kts | 172° |
| 2026-04-30 03:12 | -17.87296 | -38.82453 | 27093 ft | 461 kts | 172° |
| 2026-04-30 03:12 | -17.90475 | -38.82007 | 27406 ft | 462 kts | 172° |
| 2026-04-30 03:12 | -17.93668 | -38.81558 | 27706 ft | 463 kts | 172° |
| 2026-04-30 03:13 | -17.96866 | -38.81105 | 27996 ft | 464 kts | 172° |
| 2026-04-30 03:13 | -18.00072 | -38.80649 | 28273 ft | 465 kts | 172° |
| 2026-04-30 03:13 | -18.03286 | -38.80191 | 28571 ft | 467 kts | 172° |
| 2026-04-30 03:13 | -18.06508 | -38.79732 | 28853 ft | 468 kts | 172° |
| 2026-04-30 03:14 | -18.09737 | -38.79273 | 29134 ft | 469 kts | 172° |
| 2026-04-30 03:14 | -18.12974 | -38.78813 | 29406 ft | 470 kts | 172° |
| 2026-04-30 03:14 | -18.16217 | -38.78351 | 29712 ft | 470 kts | 172° |
| 2026-04-30 03:14 | -18.19451 | -38.77890 | 30127 ft | 468 kts | 172° |
| 2026-04-30 03:15 | -18.22678 | -38.77430 | 30477 ft | 466 kts | 172° |
| 2026-04-30 03:15 | -18.25889 | -38.76973 | 30809 ft | 464 kts | 172° |
| 2026-04-30 03:15 | -18.29088 | -38.76517 | 31125 ft | 463 kts | 172° |
| 2026-04-30 03:15 | -18.32280 | -38.76065 | 31447 ft | 462 kts | 172° |
| 2026-04-30 03:16 | -18.35462 | -38.75614 | 31764 ft | 461 kts | 172° |
| 2026-04-30 03:16 | -18.38642 | -38.75161 | 32081 ft | 461 kts | 172° |
| 2026-04-30 03:16 | -18.41815 | -38.74710 | 32394 ft | 460 kts | 172° |
| 2026-04-30 03:16 | -18.44988 | -38.74260 | 32712 ft | 459 kts | 173° |
| 2026-04-30 03:17 | -18.48124 | -38.73973 | 33018 ft | 458 kts | 180° |
| 2026-04-30 03:17 | -18.51291 | -38.74222 | 33329 ft | 457 kts | 190° |
| 2026-04-30 03:17 | -18.54365 | -38.75044 | 33646 ft | 456 kts | 200° |
| 2026-04-30 03:17 | -18.57255 | -38.76408 | 33959 ft | 455 kts | 209° |
| 2026-04-30 03:18 | -18.60011 | -38.78053 | 34235 ft | 455 kts | 209° |
| 2026-04-30 03:18 | -18.62768 | -38.79688 | 34518 ft | 454 kts | 209° |
| 2026-04-30 03:18 | -18.65519 | -38.81313 | 34801 ft | 453 kts | 209° |
| 2026-04-30 03:18 | -18.68271 | -38.82933 | 35080 ft | 453 kts | 209° |
| 2026-04-30 03:19 | -18.71018 | -38.84551 | 35348 ft | 452 kts | 209° |
| 2026-04-30 03:19 | -18.73758 | -38.86168 | 35607 ft | 451 kts | 209° |
| 2026-04-30 03:19 | -18.76492 | -38.87788 | 35858 ft | 450 kts | 209° |
| 2026-04-30 03:19 | -18.79224 | -38.89410 | 36027 ft | 450 kts | 209° |
| 2026-04-30 03:20 | -18.84684 | -38.92662 | 36070 ft | 451 kts | 209° |
| 2026-04-30 03:20 | -18.90158 | -38.95918 | 36074 ft | 451 kts | 209° |
| 2026-04-30 03:21 | -18.95628 | -38.99171 | 36074 ft | 451 kts | 210° |
| 2026-04-30 03:21 | -19.01097 | -39.02419 | 36076 ft | 451 kts | 210° |
| 2026-04-30 03:22 | -19.06566 | -39.05675 | 36079 ft | 451 kts | 210° |
| 2026-04-30 03:22 | -19.12034 | -39.08938 | 36077 ft | 451 kts | 210° |
| 2026-04-30 03:23 | -19.17514 | -39.12179 | 36076 ft | 451 kts | 209° |
| 2026-04-30 03:23 | -19.23029 | -39.15357 | 36078 ft | 451 kts | 209° |
| 2026-04-30 03:24 | -19.28543 | -39.18530 | 36079 ft | 451 kts | 209° |
| 2026-04-30 03:24 | -19.34052 | -39.21723 | 36083 ft | 451 kts | 209° |
| 2026-04-30 03:25 | -19.39517 | -39.24906 | 36081 ft | 451 kts | 209° |
| 2026-04-30 03:25 | -19.45014 | -39.28102 | 36084 ft | 451 kts | 209° |
| 2026-04-30 03:26 | -19.50516 | -39.31306 | 36081 ft | 451 kts | 210° |
| 2026-04-30 03:26 | -19.55980 | -39.34570 | 36084 ft | 451 kts | 211° |
| 2026-04-30 03:27 | -19.61326 | -39.38032 | 36082 ft | 450 kts | 213° |
| 2026-04-30 03:27 | -19.66651 | -39.41536 | 36082 ft | 450 kts | 212° |
| 2026-04-30 03:28 | -19.71995 | -39.45000 | 36087 ft | 450 kts | 212° |
| 2026-04-30 03:28 | -19.77363 | -39.48442 | 36087 ft | 450 kts | 212° |
| 2026-04-30 03:29 | -19.82727 | -39.51878 | 36086 ft | 450 kts | 212° |
| 2026-04-30 03:29 | -19.88084 | -39.55315 | 36084 ft | 450 kts | 212° |
| 2026-04-30 03:30 | -19.93495 | -39.58669 | 36085 ft | 450 kts | 211° |
| 2026-04-30 03:30 | -19.98931 | -39.61980 | 36084 ft | 450 kts | 211° |
| 2026-04-30 03:31 | -20.04357 | -39.65301 | 36085 ft | 450 kts | 211° |
| 2026-04-30 03:31 | -20.09777 | -39.68653 | 36084 ft | 450 kts | 212° |
| 2026-04-30 03:32 | -20.15188 | -39.72007 | 36088 ft | 450 kts | 212° |
| 2026-04-30 03:32 | -20.20601 | -39.75356 | 36082 ft | 450 kts | 212° |
| 2026-04-30 03:33 | -20.26014 | -39.78710 | 36083 ft | 450 kts | 212° |
| 2026-04-30 03:33 | -20.31422 | -39.82066 | 36081 ft | 450 kts | 212° |
| 2026-04-30 03:34 | -20.36838 | -39.85421 | 36080 ft | 450 kts | 212° |
| 2026-04-30 03:34 | -20.42246 | -39.88775 | 36081 ft | 450 kts | 212° |
| 2026-04-30 03:35 | -20.47656 | -39.92138 | 36084 ft | 450 kts | 212° |
| 2026-04-30 03:35 | -20.53058 | -39.95495 | 36080 ft | 449 kts | 212° |
| 2026-04-30 03:36 | -20.58411 | -39.98855 | 36079 ft | 449 kts | 214° |
| 2026-04-30 03:36 | -20.63620 | -40.02514 | 36079 ft | 448 kts | 217° |
| 2026-04-30 03:37 | -20.68726 | -40.06317 | 36079 ft | 447 kts | 217° |
| 2026-04-30 03:37 | -20.73852 | -40.10082 | 36080 ft | 447 kts | 216° |
| 2026-04-30 03:38 | -20.79011 | -40.13799 | 36074 ft | 447 kts | 216° |
| 2026-04-30 03:38 | -20.84172 | -40.17505 | 36075 ft | 447 kts | 216° |
| 2026-04-30 03:39 | -20.85911 | -40.18758 | 36074 ft | 446 kts | 217° |
| 2026-04-30 03:39 | -20.89673 | -40.21490 | 36072 ft | 446 kts | 217° |
| 2026-04-30 03:40 | -20.94775 | -40.25197 | 36068 ft | 446 kts | 217° |
| 2026-04-30 03:40 | -20.99905 | -40.28918 | 36065 ft | 446 kts | 217° |
| 2026-04-30 03:41 | -21.05043 | -40.32624 | 36063 ft | 445 kts | 217° |
| 2026-04-30 03:41 | -21.10178 | -40.36341 | 36063 ft | 445 kts | 217° |
| 2026-04-30 03:42 | -21.15304 | -40.40055 | 36061 ft | 445 kts | 217° |
| 2026-04-30 03:42 | -21.20431 | -40.43775 | 36057 ft | 445 kts | 217° |
| 2026-04-30 03:43 | -21.25547 | -40.47497 | 36054 ft | 444 kts | 217° |
| 2026-04-30 03:43 | -21.30669 | -40.51220 | 36057 ft | 444 kts | 217° |
| 2026-04-30 03:44 | -21.35784 | -40.54942 | 36053 ft | 444 kts | 217° |
| 2026-04-30 03:44 | -21.40893 | -40.58668 | 36047 ft | 444 kts | 217° |
| 2026-04-30 03:45 | -21.46002 | -40.62395 | 36045 ft | 444 kts | 217° |
| 2026-04-30 03:45 | -21.51114 | -40.66131 | 36043 ft | 444 kts | 218° |
| 2026-04-30 03:46 | -21.56218 | -40.69868 | 36043 ft | 444 kts | 218° |
| 2026-04-30 03:46 | -21.61328 | -40.73606 | 36045 ft | 444 kts | 218° |
| 2026-04-30 03:47 | -21.66405 | -40.77316 | 36042 ft | 444 kts | 218° |
| 2026-04-30 03:47 | -21.71517 | -40.81054 | 36038 ft | 444 kts | 218° |
| 2026-04-30 03:48 | -21.76631 | -40.84797 | 36039 ft | 444 kts | 218° |
| 2026-04-30 03:48 | -21.81739 | -40.88543 | 36035 ft | 444 kts | 218° |
| 2026-04-30 03:49 | -21.86572 | -40.92102 | 36036 ft | 444 kts | 218° |
| 2026-04-30 03:49 | -21.91673 | -40.95861 | 36038 ft | 444 kts | 218° |
| 2026-04-30 03:50 | -21.96781 | -40.99613 | 36039 ft | 444 kts | 218° |
| 2026-04-30 03:50 | -22.01756 | -41.03267 | 36038 ft | 444 kts | 218° |
| 2026-04-30 03:51 | -22.06806 | -41.06991 | 36035 ft | 444 kts | 219° |
| 2026-04-30 03:51 | -22.11904 | -41.10755 | 36034 ft | 444 kts | 219° |
| 2026-04-30 03:52 | -22.17001 | -41.14516 | 36035 ft | 444 kts | 219° |
| 2026-04-30 03:52 | -22.22090 | -41.18282 | 36033 ft | 444 kts | 219° |
| 2026-04-30 03:53 | -22.27145 | -41.22026 | 36034 ft | 444 kts | 219° |
| 2026-04-30 03:53 | -22.32233 | -41.25796 | 36033 ft | 443 kts | 219° |
| 2026-04-30 03:54 | -22.37320 | -41.29568 | 36038 ft | 443 kts | 219° |
| 2026-04-30 03:54 | -22.42403 | -41.33333 | 36038 ft | 443 kts | 219° |
| 2026-04-30 03:55 | -22.47519 | -41.37127 | 36036 ft | 443 kts | 219° |
| 2026-04-30 03:55 | -22.52564 | -41.40877 | 36034 ft | 443 kts | 219° |
| 2026-04-30 03:56 | -22.57636 | -41.44653 | 36035 ft | 442 kts | 219° |
| 2026-04-30 03:56 | -22.62705 | -41.48426 | 36036 ft | 442 kts | 219° |
| 2026-04-30 03:57 | -22.67771 | -41.52203 | 36041 ft | 442 kts | 219° |
| 2026-04-30 03:57 | -22.72838 | -41.55978 | 36034 ft | 442 kts | 219° |
| 2026-04-30 03:58 | -22.77791 | -41.59884 | 36029 ft | 437 kts | 227° |
| 2026-04-30 03:58 | -22.82212 | -41.64368 | 36031 ft | 435 kts | 228° |
| 2026-04-30 03:59 | -22.86353 | -41.68573 | 36032 ft | 435 kts | 228° |
| 2026-04-30 03:59 | -22.90780 | -41.73060 | 36031 ft | 435 kts | 228° |
| 2026-04-30 04:00 | -22.95197 | -41.77548 | 36033 ft | 435 kts | 228° |
| 2026-04-30 04:00 | -22.99611 | -41.82039 | 36031 ft | 435 kts | 228° |
| 2026-04-30 04:01 | -23.04023 | -41.86529 | 36034 ft | 435 kts | 228° |
| 2026-04-30 04:01 | -23.08431 | -41.91020 | 36067 ft | 434 kts | 228° |
| 2026-04-30 04:02 | -23.12841 | -41.95519 | 36040 ft | 435 kts | 227° |
| 2026-04-30 04:02 | -23.17251 | -42.00019 | 36025 ft | 435 kts | 227° |
| 2026-04-30 04:03 | -23.21665 | -42.04525 | 36019 ft | 435 kts | 227° |
| 2026-04-30 04:03 | -23.26048 | -42.09009 | 36018 ft | 435 kts | 227° |
| 2026-04-30 04:04 | -23.30456 | -42.13528 | 36017 ft | 435 kts | 227° |
| 2026-04-30 04:04 | -23.34862 | -42.18050 | 36021 ft | 435 kts | 227° |
| 2026-04-30 04:05 | -23.39266 | -42.22574 | 36024 ft | 435 kts | 228° |
| 2026-04-30 04:05 | -23.43670 | -42.27103 | 36016 ft | 435 kts | 228° |
| 2026-04-30 04:06 | -23.48072 | -42.31628 | 36013 ft | 435 kts | 228° |
| 2026-04-30 04:06 | -23.52476 | -42.36153 | 36017 ft | 435 kts | 228° |
| 2026-04-30 04:07 | -23.56871 | -42.40683 | 36015 ft | 435 kts | 228° |
| 2026-04-30 04:08 | -23.63472 | -42.47480 | 36005 ft | 435 kts | 229° |
| 2026-04-30 04:08 | -23.67856 | -42.52006 | 36024 ft | 433 kts | 229° |
| 2026-04-30 04:09 | -23.72213 | -42.56523 | 36034 ft | 431 kts | 229° |
| 2026-04-30 04:09 | -23.76562 | -42.61024 | 36036 ft | 430 kts | 229° |
| 2026-04-30 04:10 | -23.80903 | -42.65511 | 36034 ft | 429 kts | 229° |
| 2026-04-30 04:10 | -23.85237 | -42.69994 | 36037 ft | 429 kts | 229° |
| 2026-04-30 04:11 | -23.89558 | -42.74473 | 36038 ft | 428 kts | 229° |
| 2026-04-30 04:11 | -23.93870 | -42.78953 | 36034 ft | 427 kts | 229° |
| 2026-04-30 04:12 | -23.98174 | -42.83428 | 36030 ft | 427 kts | 229° |
| 2026-04-30 04:12 | -24.02475 | -42.87898 | 36028 ft | 426 kts | 229° |
| 2026-04-30 04:13 | -24.06767 | -42.92371 | 36034 ft | 426 kts | 229° |
| 2026-04-30 04:13 | -24.11059 | -42.96842 | 36032 ft | 426 kts | 230° |
| 2026-04-30 04:14 | -24.15344 | -43.01320 | 36030 ft | 426 kts | 230° |
| 2026-04-30 04:14 | -24.19629 | -43.05799 | 36026 ft | 426 kts | 230° |
| 2026-04-30 04:15 | -24.23889 | -43.10247 | 36011 ft | 426 kts | 230° |
| 2026-04-30 04:15 | -24.28174 | -43.14733 | 36012 ft | 426 kts | 230° |
| 2026-04-30 04:16 | -24.32458 | -43.19222 | 36010 ft | 426 kts | 230° |
| 2026-04-30 04:16 | -24.36750 | -43.23720 | 36014 ft | 427 kts | 230° |
| 2026-04-30 04:17 | -24.41033 | -43.28222 | 36015 ft | 427 kts | 230° |
| 2026-04-30 04:17 | -24.45328 | -43.32729 | 36015 ft | 427 kts | 230° |
| 2026-04-30 04:18 | -24.49620 | -43.37234 | 36020 ft | 427 kts | 230° |
| 2026-04-30 04:18 | -24.53908 | -43.41752 | 36021 ft | 427 kts | 230° |
| 2026-04-30 04:19 | -24.58197 | -43.46273 | 36018 ft | 427 kts | 230° |
| 2026-04-30 04:19 | -24.62489 | -43.50802 | 36018 ft | 427 kts | 230° |
| 2026-04-30 04:20 | -24.66779 | -43.55326 | 36020 ft | 427 kts | 230° |
| 2026-04-30 04:20 | -24.71062 | -43.59865 | 36021 ft | 428 kts | 230° |
| 2026-04-30 04:21 | -24.75353 | -43.64394 | 36021 ft | 428 kts | 230° |
| 2026-04-30 04:21 | -24.79643 | -43.68932 | 36022 ft | 428 kts | 230° |
| 2026-04-30 04:22 | -24.83921 | -43.73482 | 36025 ft | 428 kts | 230° |
| 2026-04-30 04:22 | -24.88199 | -43.78029 | 36025 ft | 428 kts | 230° |
| 2026-04-30 04:23 | -24.92478 | -43.82579 | 36030 ft | 427 kts | 230° |
| 2026-04-30 04:23 | -24.96037 | -43.86362 | 36029 ft | 427 kts | 230° |
| 2026-04-30 04:24 | -25.00315 | -43.90907 | 36030 ft | 427 kts | 230° |
| 2026-04-30 04:24 | -25.05281 | -43.96192 | 36028 ft | 427 kts | 231° |
| 2026-04-30 04:25 | -25.09551 | -44.00744 | 36026 ft | 427 kts | 231° |
| 2026-04-30 04:25 | -25.13127 | -44.04562 | 36029 ft | 427 kts | 231° |
| 2026-04-30 04:26 | -25.17391 | -44.09120 | 36025 ft | 427 kts | 231° |
| 2026-04-30 04:26 | -25.21645 | -44.13686 | 36026 ft | 426 kts | 231° |
| 2026-04-30 04:27 | -25.25878 | -44.18214 | 36024 ft | 427 kts | 231° |
| 2026-04-30 04:27 | -25.30140 | -44.22775 | 36022 ft | 426 kts | 231° |
| 2026-04-30 04:28 | -25.34405 | -44.27334 | 36024 ft | 426 kts | 231° |
| 2026-04-30 04:28 | -25.38657 | -44.31904 | 36024 ft | 426 kts | 231° |
| 2026-04-30 04:29 | -25.42904 | -44.36478 | 36028 ft | 426 kts | 231° |
| 2026-04-30 04:29 | -25.47142 | -44.41057 | 36026 ft | 426 kts | 231° |
| 2026-04-30 04:30 | -25.51388 | -44.45632 | 36025 ft | 426 kts | 231° |
| 2026-04-30 04:30 | -25.55638 | -44.50205 | 36021 ft | 426 kts | 231° |
| 2026-04-30 04:31 | -25.59878 | -44.54777 | 36023 ft | 425 kts | 231° |
| 2026-04-30 04:31 | -25.64114 | -44.59363 | 36022 ft | 425 kts | 232° |
| 2026-04-30 04:32 | -25.68344 | -44.63951 | 36022 ft | 425 kts | 231° |
| 2026-04-30 04:32 | -25.72577 | -44.68537 | 36024 ft | 425 kts | 232° |
| 2026-04-30 04:33 | -25.76815 | -44.73121 | 36026 ft | 425 kts | 232° |
| 2026-04-30 04:33 | -25.81048 | -44.77711 | 36023 ft | 425 kts | 232° |
| 2026-04-30 04:34 | -25.85272 | -44.82312 | 36024 ft | 425 kts | 232° |
| 2026-04-30 04:34 | -25.89466 | -44.86880 | 36026 ft | 425 kts | 232° |
| 2026-04-30 04:35 | -25.93695 | -44.91477 | 36027 ft | 425 kts | 232° |
| 2026-04-30 04:35 | -25.97916 | -44.96076 | 36027 ft | 425 kts | 232° |
| 2026-04-30 04:36 | -26.02132 | -45.00682 | 36048 ft | 425 kts | 233° |
| 2026-04-30 04:36 | -26.06347 | -45.05284 | 36036 ft | 424 kts | 233° |
| 2026-04-30 04:37 | -26.10557 | -45.09882 | 36035 ft | 424 kts | 233° |
| 2026-04-30 04:37 | -26.14757 | -45.14482 | 36044 ft | 423 kts | 233° |
| 2026-04-30 04:38 | -26.18952 | -45.19076 | 36044 ft | 423 kts | 233° |
| 2026-04-30 04:38 | -26.23142 | -45.23675 | 36042 ft | 422 kts | 233° |
| 2026-04-30 04:39 | -26.26997 | -45.27921 | 36044 ft | 422 kts | 233° |
| 2026-04-30 04:39 | -26.30742 | -45.32041 | 36037 ft | 422 kts | 233° |
| 2026-04-30 04:40 | -26.34920 | -45.36628 | 36041 ft | 421 kts | 233° |
| 2026-04-30 04:40 | -26.39090 | -45.41223 | 36041 ft | 421 kts | 233° |
| 2026-04-30 04:41 | -26.43249 | -45.45816 | 36040 ft | 420 kts | 234° |
| 2026-04-30 04:41 | -26.47406 | -45.50404 | 36041 ft | 420 kts | 234° |
| 2026-04-30 04:42 | -26.51562 | -45.54987 | 36045 ft | 420 kts | 234° |
| 2026-04-30 04:42 | -26.55705 | -45.59570 | 36044 ft | 419 kts | 234° |
| 2026-04-30 04:43 | -26.59839 | -45.64158 | 36042 ft | 418 kts | 234° |
| 2026-04-30 04:43 | -26.63965 | -45.68745 | 36043 ft | 418 kts | 234° |
| 2026-04-30 04:44 | -26.68096 | -45.73326 | 36038 ft | 418 kts | 234° |
| 2026-04-30 04:44 | -26.72228 | -45.77904 | 36038 ft | 418 kts | 234° |
| 2026-04-30 04:45 | -26.76359 | -45.82486 | 36032 ft | 418 kts | 234° |
| 2026-04-30 04:45 | -26.80479 | -45.87073 | 36027 ft | 418 kts | 234° |
| 2026-04-30 04:46 | -26.84588 | -45.91665 | 36026 ft | 417 kts | 234° |
| 2026-04-30 04:46 | -26.88697 | -45.96262 | 36025 ft | 417 kts | 234° |
| 2026-04-30 04:47 | -26.92808 | -46.00858 | 36024 ft | 417 kts | 234° |
| 2026-04-30 04:47 | -26.96920 | -46.05454 | 36024 ft | 417 kts | 234° |
| 2026-04-30 04:48 | -27.01000 | -46.10021 | 36027 ft | 417 kts | 234° |
| 2026-04-30 04:48 | -27.05134 | -46.14648 | 36026 ft | 417 kts | 234° |
| 2026-04-30 04:49 | -27.09229 | -46.19247 | 36029 ft | 416 kts | 235° |
| 2026-04-30 04:49 | -27.13323 | -46.23841 | 36035 ft | 416 kts | 235° |
| 2026-04-30 04:50 | -27.17416 | -46.28434 | 36039 ft | 416 kts | 235° |
| 2026-04-30 04:50 | -27.21471 | -46.33002 | 36039 ft | 415 kts | 235° |
| 2026-04-30 04:51 | -27.25511 | -46.37568 | 36032 ft | 414 kts | 235° |
| 2026-04-30 04:51 | -27.29571 | -46.42161 | 36034 ft | 414 kts | 236° |
| 2026-04-30 04:52 | -27.33634 | -46.46742 | 36034 ft | 414 kts | 236° |
| 2026-04-30 04:52 | -27.37692 | -46.51327 | 36031 ft | 413 kts | 236° |
| 2026-04-30 04:53 | -27.41749 | -46.55915 | 36031 ft | 413 kts | 236° |
| 2026-04-30 04:53 | -27.45796 | -46.60495 | 36031 ft | 412 kts | 236° |
| 2026-04-30 04:54 | -27.49836 | -46.65084 | 36029 ft | 412 kts | 236° |
| 2026-04-30 04:54 | -27.53868 | -46.69673 | 36028 ft | 412 kts | 236° |
| 2026-04-30 04:55 | -27.57897 | -46.74253 | 36024 ft | 412 kts | 236° |
| 2026-04-30 04:55 | -27.61926 | -46.78842 | 36029 ft | 411 kts | 236° |
| 2026-04-30 04:56 | -27.65943 | -46.83426 | 36028 ft | 411 kts | 236° |
| 2026-04-30 04:56 | -27.69966 | -46.88006 | 36031 ft | 411 kts | 236° |
| 2026-04-30 04:57 | -27.73980 | -46.92583 | 36031 ft | 410 kts | 236° |
| 2026-04-30 04:57 | -27.77996 | -46.97166 | 36037 ft | 410 kts | 236° |
| 2026-04-30 04:58 | -27.81992 | -47.01744 | 36036 ft | 409 kts | 236° |
| 2026-04-30 04:58 | -27.85976 | -47.06327 | 36038 ft | 409 kts | 237° |
| 2026-04-30 04:59 | -27.89961 | -47.10906 | 36029 ft | 408 kts | 237° |
| 2026-04-30 04:59 | -27.93942 | -47.15484 | 36022 ft | 408 kts | 237° |
| 2026-04-30 05:00 | -27.97923 | -47.20061 | 36034 ft | 408 kts | 237° |
| 2026-04-30 05:00 | -28.01897 | -47.24631 | 36033 ft | 407 kts | 237° |
| 2026-04-30 05:01 | -28.05864 | -47.29210 | 36031 ft | 407 kts | 237° |
| 2026-04-30 05:01 | -28.09801 | -47.33758 | 36034 ft | 407 kts | 237° |
| 2026-04-30 05:02 | -28.13765 | -47.38329 | 36032 ft | 406 kts | 237° |
| 2026-04-30 05:02 | -28.17721 | -47.42903 | 36030 ft | 406 kts | 237° |
| 2026-04-30 05:03 | -28.21670 | -47.47477 | 36030 ft | 406 kts | 237° |
| 2026-04-30 05:03 | -28.25617 | -47.52053 | 36030 ft | 406 kts | 237° |
| 2026-04-30 05:04 | -28.29557 | -47.56628 | 36029 ft | 405 kts | 237° |
| 2026-04-30 05:04 | -28.33499 | -47.61204 | 36034 ft | 405 kts | 237° |
| 2026-04-30 05:05 | -28.37446 | -47.65782 | 36031 ft | 405 kts | 237° |
| 2026-04-30 05:05 | -28.41382 | -47.70358 | 36030 ft | 405 kts | 237° |
| 2026-04-30 05:06 | -28.47263 | -47.77228 | 36037 ft | 404 kts | 237° |
| 2026-04-30 05:06 | -28.51177 | -47.81811 | 36031 ft | 404 kts | 237° |
| 2026-04-30 05:07 | -28.55071 | -47.86357 | 36000 ft | 404 kts | 234° |
| 2026-04-30 05:07 | -28.58991 | -47.90944 | 36012 ft | 404 kts | 234° |
| 2026-04-30 05:08 | -28.62915 | -47.95540 | 36017 ft | 404 kts | 234° |
| 2026-04-30 05:08 | -28.66836 | -48.00139 | 36027 ft | 404 kts | 234° |
| 2026-04-30 05:09 | -28.70060 | -48.03926 | 36026 ft | 404 kts | 234° |
| 2026-04-30 05:09 | -28.73980 | -48.08526 | 36032 ft | 404 kts | 234° |
| 2026-04-30 05:10 | -28.77884 | -48.13121 | 36038 ft | 403 kts | 234° |
| 2026-04-30 05:10 | -28.81785 | -48.17720 | 36044 ft | 403 kts | 234° |
| 2026-04-30 05:11 | -28.85680 | -48.22319 | 36043 ft | 403 kts | 234° |
| 2026-04-30 05:11 | -28.89572 | -48.26913 | 36045 ft | 403 kts | 234° |
| 2026-04-30 05:12 | -28.93439 | -48.31486 | 36048 ft | 402 kts | 234° |
| 2026-04-30 05:12 | -28.97326 | -48.36083 | 36048 ft | 402 kts | 234° |
| 2026-04-30 05:13 | -29.01207 | -48.40682 | 36048 ft | 402 kts | 234° |
| 2026-04-30 05:13 | -29.05079 | -48.45278 | 36048 ft | 401 kts | 234° |
| 2026-04-30 05:14 | -29.08948 | -48.49877 | 36048 ft | 401 kts | 234° |
| 2026-04-30 05:14 | -29.12806 | -48.54477 | 36052 ft | 401 kts | 234° |
| 2026-04-30 05:15 | -29.16668 | -48.59068 | 36051 ft | 400 kts | 234° |
| 2026-04-30 05:15 | -29.20526 | -48.63655 | 36053 ft | 400 kts | 234° |
| 2026-04-30 05:16 | -29.24368 | -48.68249 | 36055 ft | 399 kts | 234° |
| 2026-04-30 05:16 | -29.28206 | -48.72843 | 36060 ft | 398 kts | 234° |
| 2026-04-30 05:17 | -29.32040 | -48.77420 | 36061 ft | 398 kts | 234° |